Holualoa, HI (96725)

1:26 PM HST on August 26, 2016 (GMT -1000)
Kona Vistas | | Change Station

Elev 541 ft 19.61 °N, 155.96 °W | Updated 55 seconds ago

Mostly Cloudy
Mostly Cloudy
79.2 °F
Feels Like 82 °F
N
1.8
Wind Variable Wind from SW
Gusts 7.4 mph

Today
High -- | Low -- °F
--% Chance of Precip.
Yesterday
High -- | Low -- °F
Precip. -- in
Pressure 29.95 in
Visibility 10.0 miles
Clouds Mostly Cloudy 4000 ft
Mostly Cloudy 5500 ft
Heat Index 82 °F
Dew Point 69 °F
Humidity 71%
Rainfall 0.00 in
Snow Depth Not available.
6:07 AM 6:43 PM
Waning Crescent, 30% visible
METAR PHKO 262253Z 23010KT 10SM BKN040 BKN055 29/22 A2995 RMK AO2 SLP141 T02940222
Pressure 29.95 in
Visibility 10.0 miles
Clouds Mostly Cloudy 4000 ft
Mostly Cloudy 5500 ft
Heat Index 82 °F
Dew Point 69 °F
Humidity 71%
Rainfall 0.00 in
Snow Depth Not available.
6:07 AM 6:43 PM
Waning Crescent, 30% visible
METAR PHKO 262253Z 23010KT 10SM BKN040 BKN055 29/22 A2995 RMK AO2 SLP141 T02940222

10-Day Weather Forecast

Almanac

Astronomy

Aug. 26, 2016 Rise Set
Actual Time
Civil Twilight
Nautical Twilight
Astronomical Twilight
Moon
Length of Visible Light
Length of Day
Tomorrow will be .
, % of the Moon is Illuminated

Today's Extremes

State Highs State Lows

Community

WunderPhotos

Upload Photos

1,935,254 photos uploaded!

WunderBlog® & News

Nearby

Air Quality

  Air Quality AQ Index Pollutant
Not available.

Snow Depth

Station Depth Elevation

Earthquake Activity

City Distance Mag. Time & Date
Minimum magnitude displayed is 2.5.

Coastal Water Temperatures

Place Temperature

Stations

Nearby Weather Stations

Station Location Temp. Windchill Dew Point Humidity Wind Precip. Elev Updated Type
                   

Watches & Warnings

There are currently no watches in effect.